createdAt,value
2023-01-31T01:42:26.615Z,98564.44
2023-01-31T01:43:50.117Z,98569.59
2023-01-31T01:44:58.703Z,98570.50
2023-01-31T01:46:02.453Z,98570.50
2023-01-31T01:47:36.164Z,98578.84
2023-01-31T01:48:44.144Z,98581.31
2023-01-31T01:49:56.872Z,98577.75
2023-01-31T01:51:05.931Z,98582.06
2023-01-31T01:52:17.866Z,98585.38
2023-01-31T01:53:28.893Z,98581.66
2023-01-31T01:54:56.942Z,98586.78
2023-01-31T01:56:17.378Z,98581.06
2023-01-31T01:57:37.416Z,98579.31
2023-01-31T01:58:59.282Z,98585.38
2023-01-31T02:00:34.978Z,98582.84
2023-01-31T02:01:40.105Z,98594.28
2023-01-31T02:02:47.326Z,98589.94
2023-01-31T02:03:53.652Z,98588.94
2023-01-31T02:04:58.031Z,98589.63
2023-01-31T02:06:07.564Z,98596.75
2023-01-31T02:07:17.557Z,98594.88
2023-01-31T02:08:26.449Z,98598.44
2023-01-31T02:10:10.257Z,98593.09
2023-01-31T02:11:34.549Z,98597.50
2023-01-31T02:12:39.895Z,98595.66
2023-01-31T02:13:52.446Z,98594.03
2023-01-31T02:14:56.604Z,98600.84
2023-01-31T02:16:01.431Z,98594.66
2023-01-31T02:17:06.137Z,98607.06
2023-01-31T02:18:11.198Z,98606.09
2023-01-31T02:19:39.765Z,98606.22
2023-01-31T02:21:24.051Z,98609.56
2023-01-31T02:23:00.812Z,98603.38
2023-01-31T02:25:11.791Z,98607.47
2023-01-31T02:27:16.130Z,98614.63
2023-01-31T02:28:35.523Z,98621.03
2023-01-31T02:30:26.445Z,98612.56
2023-01-31T02:32:27.867Z,98613.53
2023-01-31T02:34:17.665Z,98617.72
2023-01-31T02:36:25.853Z,98611.47
2023-01-31T02:39:20.994Z,98627.94
2023-01-31T02:41:24.419Z,98631.47
2023-01-31T02:42:56.763Z,98642.03
2023-01-31T02:44:52.923Z,98637.41
2023-01-31T02:46:17.321Z,98640.34
2023-01-31T02:48:14.541Z,98636.56
2023-01-31T02:49:52.141Z,98639.72
2023-01-31T02:51:37.230Z,98650.31
2023-01-31T02:53:21.820Z,98650.31
2023-01-31T02:54:49.144Z,98659.03
2023-01-31T02:56:36.472Z,98659.78
2023-01-31T02:57:58.523Z,98660.63
2023-01-31T02:59:20.808Z,98673.53
2023-01-31T03:00:35.468Z,98667.19
2023-01-31T03:01:51.309Z,98676.25
2023-01-31T03:02:56.897Z,98683.97
2023-01-31T03:04:12.875Z,98682.91
2023-01-31T03:05:25.914Z,98686.28
2023-01-31T03:06:37.529Z,98683.81
2023-01-31T03:08:00.075Z,98690.78
2023-01-31T03:09:29.071Z,98680.28
2023-01-31T03:10:41.641Z,98681.19
2023-01-31T03:12:27.376Z,98688.53
2023-01-31T03:13:53.675Z,98687.31
2023-01-31T03:15:24.906Z,98689.84
2023-01-31T03:17:15.023Z,98685.28
2023-01-31T03:18:42.169Z,98685.28
2023-01-31T03:19:55.837Z,98687.03
2023-01-31T03:21:21.973Z,98681.25
2023-01-31T03:22:46.509Z,98682.72
2023-01-31T03:23:56.131Z,98687.13
2023-01-31T03:25:04.618Z,98677.56
2023-01-31T03:26:10.307Z,98683.66
2023-01-31T03:27:21.432Z,98689.59
2023-01-31T03:28:33.080Z,98687.97
2023-01-31T03:29:39.255Z,98698.19
2023-01-31T03:31:01.480Z,98695.56
2023-01-31T03:32:46.324Z,98702.41
2023-01-31T03:34:02.128Z,98701.34
2023-01-31T03:35:07.810Z,98702.66
2023-01-31T03:36:38.549Z,98709.31
2023-01-31T03:37:57.691Z,98720.28
2023-01-31T03:39:29.142Z,98716.16
2023-01-31T03:40:53.810Z,98725.13
2023-01-31T03:42:09.809Z,98719.81
2023-01-31T03:43:31.822Z,98725.81
2023-01-31T03:44:59.015Z,98723.28
2023-01-31T03:46:31.250Z,98722.44
2023-01-31T03:47:45.852Z,98727.59
2023-01-31T03:48:56.130Z,98731.06
2023-01-31T03:50:30.942Z,98727.69
2023-01-31T03:51:38.552Z,98726.97
2023-01-31T03:52:55.658Z,98728.59
2023-01-31T03:54:10.382Z,98739.03
2023-01-31T03:55:28.500Z,98733.84
2023-01-31T03:56:44.561Z,98736.34
2023-01-31T03:57:56.024Z,98734.72
2023-01-31T03:59:23.043Z,98731.06
2023-01-31T04:00:28.038Z,98732.78
2023-01-31T04:01:38.317Z,98737.84
2023-01-31T04:02:43.864Z,98742.25
2023-01-31T04:04:05.705Z,98738.88
2023-01-31T04:05:20.346Z,98738.88
2023-01-31T04:06:24.615Z,98743.75
2023-01-31T04:07:29.168Z,98743.81
2023-01-31T04:08:37.052Z,98743.38
2023-01-31T04:09:41.378Z,98743.81
2023-01-31T04:10:45.553Z,98742.88
2023-01-31T04:11:50.928Z,98749.25
2023-01-31T04:12:55.494Z,98757.72
2023-01-31T04:13:59.524Z,98753.47
2023-01-31T04:15:06.344Z,98753.63
2023-01-31T04:16:13.947Z,98759.50
2023-01-31T04:17:21.494Z,98754.16
2023-01-31T04:18:25.575Z,98758.56
2023-01-31T04:19:29.377Z,98752.38
2023-01-31T04:20:35.499Z,98751.69
2023-01-31T04:21:39.689Z,98750.09
2023-01-31T04:22:46.583Z,98750.09
2023-01-31T04:23:50.539Z,98763.22
2023-01-31T04:24:55.011Z,98759.81
2023-01-31T04:25:58.792Z,98761.66
2023-01-31T04:27:02.743Z,98760.06
2023-01-31T04:28:06.846Z,98758.41
2023-01-31T04:29:10.926Z,98762.72
2023-01-31T04:30:18.780Z,98760.06
2023-01-31T04:31:22.666Z,98767.97
2023-01-31T04:32:27.249Z,98766.81
2023-01-31T04:33:31.015Z,98760.06
2023-01-31T04:34:35.590Z,98765.91
2023-01-31T04:35:42.569Z,98775.25
2023-01-31T04:36:46.571Z,98770.25
2023-01-31T04:37:50.912Z,98771.03
2023-01-31T04:38:57.127Z,98774.97
2023-01-31T04:40:01.544Z,98782.84
2023-01-31T04:41:06.220Z,98776.66
2023-01-31T04:42:11.547Z,98781.09
2023-01-31T04:43:17.076Z,98793.25
2023-01-31T04:44:21.431Z,98781.09
2023-01-31T04:45:25.823Z,98785.00
2023-01-31T04:46:30.085Z,98783.25
2023-01-31T04:47:33.828Z,98787.84
2023-01-31T04:48:39.577Z,98799.94
2023-01-31T04:49:44.351Z,98802.56
2023-01-31T04:50:48.525Z,98806.84
2023-01-31T04:51:52.410Z,98803.38
2023-01-31T04:52:56.436Z,98807.75
2023-01-31T04:54:00.907Z,98808.13
2023-01-31T04:55:05.405Z,98812.81
2023-01-31T04:56:13.734Z,98819.06
2023-01-31T04:57:18.250Z,98809.50
2023-01-31T04:58:23.200Z,98822.47
2023-01-31T04:59:27.455Z,98822.34
2023-01-31T05:00:31.633Z,98821.78
2023-01-31T05:01:36.196Z,98821.56
2023-01-31T05:02:40.364Z,98823.38
2023-01-31T05:03:44.040Z,98826.38
2023-01-31T05:04:47.897Z,98829.09
2023-01-31T05:05:52.509Z,98834.34
2023-01-31T05:06:56.416Z,98833.50
2023-01-31T05:08:00.156Z,98841.16
2023-01-31T05:09:04.174Z,98841.16
2023-01-31T05:10:09.638Z,98837.88
2023-01-31T05:11:16.107Z,98835.53
2023-01-31T05:12:21.171Z,98847.06
2023-01-31T05:13:25.575Z,98848.75
2023-01-31T05:14:29.330Z,98849.44
2023-01-31T05:15:33.219Z,98854.50
2023-01-31T05:16:37.105Z,98854.56
2023-01-31T05:17:41.007Z,98860.75
2023-01-31T05:18:44.822Z,98858.03
2023-01-31T05:19:48.998Z,98867.41
2023-01-31T05:20:53.938Z,98867.41
2023-01-31T05:22:00.480Z,98859.66
2023-01-31T05:23:05.117Z,98871.00
2023-01-31T05:24:10.658Z,98867.97
2023-01-31T05:25:18.935Z,98872.97
2023-01-31T05:26:23.193Z,98868.63
2023-01-31T05:27:29.187Z,98872.84
2023-01-31T05:28:33.131Z,98874.06
2023-01-31T05:29:37.198Z,98878.53
2023-01-31T05:30:41.244Z,98880.84
2023-01-31T05:31:45.430Z,98874.91
2023-01-31T05:32:50.142Z,98875.91
2023-01-31T05:33:54.007Z,98876.78
2023-01-31T05:34:57.772Z,98871.53
2023-01-31T05:36:02.450Z,98887.09
2023-01-31T05:37:11.261Z,98883.72
2023-01-31T05:38:17.966Z,98881.84
2023-01-31T05:39:22.323Z,98887.25
2023-01-31T05:40:26.324Z,98882.94
2023-01-31T05:41:30.100Z,98881.16
2023-01-31T05:42:33.765Z,98890.59
2023-01-31T05:43:37.425Z,98882.78
2023-01-31T05:44:41.046Z,98887.97
2023-01-31T05:45:45.571Z,98889.53
2023-01-31T05:46:49.287Z,98894.53
2023-01-31T05:47:53.844Z,98894.91
2023-01-31T05:48:57.597Z,98893.38
2023-01-31T05:50:01.735Z,98896.91
2023-01-31T05:51:05.898Z,98897.53
2023-01-31T05:52:10.776Z,98903.59
2023-01-31T05:53:15.440Z,98902.66
2023-01-31T05:54:19.406Z,98899.75
2023-01-31T05:55:24.008Z,98910.94
2023-01-31T05:56:28.101Z,98909.94
2023-01-31T05:57:32.155Z,98914.41
2023-01-31T05:58:36.077Z,98914.56
2023-01-31T05:59:40.120Z,98911.03
2023-01-31T06:00:44.336Z,98915.44
2023-01-31T06:01:48.281Z,98921.38
2023-01-31T06:02:52.576Z,98913.78
2023-01-31T06:03:56.415Z,98912.16
2023-01-31T06:05:00.786Z,98920.31
2023-01-31T06:06:05.922Z,98919.59
2023-01-31T06:08:29.649Z,98929.59
2023-01-31T06:09:47.006Z,98927.81
2023-01-31T06:10:53.009Z,98928.41
2023-01-31T06:12:03.062Z,98936.28
2023-01-31T06:13:11.694Z,98937.94
2023-01-31T06:15:46.158Z,98943.94
2023-01-31T06:16:51.951Z,98943.28
2023-01-31T06:18:00.756Z,98949.56
2023-01-31T06:19:28.752Z,98946.94
2023-01-31T06:20:40.383Z,98952.03
2023-01-31T06:21:44.554Z,98953.78
2023-01-31T06:22:52.339Z,98952.94
2023-01-31T06:23:58.530Z,98958.06
2023-01-31T06:25:02.385Z,98958.06
2023-01-31T06:26:12.086Z,98951.25
2023-01-31T06:27:18.353Z,98966.28
2023-01-31T06:28:23.722Z,98957.50
2023-01-31T06:29:28.482Z,98970.56
2023-01-31T06:30:33.519Z,98965.16
2023-01-31T06:31:44.071Z,98971.97
2023-01-31T06:32:47.993Z,98974.78
2023-01-31T06:33:52.579Z,98979.78
2023-01-31T06:34:56.277Z,98984.81
2023-01-31T06:36:00.827Z,98978.78
2023-01-31T06:37:04.867Z,98977.88
2023-01-31T06:38:13.384Z,98983.75
2023-01-31T06:39:18.094Z,98981.00
2023-01-31T06:40:23.711Z,98994.97
2023-01-31T06:41:27.788Z,98988.06
2023-01-31T06:42:34.798Z,98981.94
2023-01-31T06:43:38.670Z,98987.22
2023-01-31T06:44:42.285Z,98987.31
2023-01-31T06:45:46.020Z,98989.59
2023-01-31T06:46:50.087Z,98994.84
2023-01-31T06:47:54.665Z,99006.19
2023-01-31T06:48:59.378Z,99000.13
2023-01-31T06:50:04.483Z,99003.41
2023-01-31T06:51:24.032Z,99003.47
2023-01-31T06:52:28.407Z,99002.47
2023-01-31T06:53:32.731Z,99002.56
2023-01-31T06:54:36.585Z,99006.03
2023-01-31T06:55:40.484Z,99001.78
2023-01-31T06:56:44.245Z,99004.75
2023-01-31T06:57:50.234Z,99002.19
2023-01-31T06:58:53.969Z,99006.75
2023-01-31T06:59:58.257Z,99012.84
2023-01-31T07:01:15.202Z,99017.75
2023-01-31T07:02:18.895Z,99022.94
2023-01-31T07:03:22.775Z,99021.31
2023-01-31T07:04:26.422Z,99025.56
2023-01-31T07:05:30.647Z,99032.38
2023-01-31T07:06:35.124Z,99027.34
2023-01-31T07:07:38.952Z,99027.47
2023-01-31T07:08:42.919Z,99027.47
2023-01-31T07:09:46.747Z,99034.72
2023-01-31T07:10:54.642Z,99035.75
2023-01-31T07:11:58.335Z,99037.47
2023-01-31T07:13:02.527Z,99042.53
2023-01-31T07:14:09.332Z,99046.25
2023-01-31T07:15:15.217Z,99053.09
2023-01-31T07:16:19.912Z,99058.97
2023-01-31T07:17:30.119Z,99055.44
2023-01-31T07:18:34.070Z,99053.59
2023-01-31T07:19:37.683Z,99054.53
2023-01-31T07:20:43.248Z,99058.84
2023-01-31T07:21:49.400Z,99051.75
2023-01-31T07:22:58.304Z,99065.03
2023-01-31T07:24:03.228Z,99060.72
2023-01-31T07:25:07.543Z,99066.66
2023-01-31T07:26:11.431Z,99065.81
2023-01-31T07:27:19.634Z,99065.97
2023-01-31T07:28:23.453Z,99069.56
2023-01-31T07:29:27.551Z,99063.03
2023-01-31T07:30:31.990Z,99070.22
2023-01-31T07:31:35.837Z,99074.34
2023-01-31T07:32:39.931Z,99078.66
2023-01-31T07:33:43.976Z,99079.38
2023-01-31T07:34:47.954Z,99077.81
2023-01-31T07:35:55.695Z,99078.88
2023-01-31T07:37:01.393Z,99076.75
2023-01-31T07:38:05.681Z,99087.31
2023-01-31T07:39:09.561Z,99082.41
2023-01-31T07:40:16.001Z,99082.16
2023-01-31T07:41:19.740Z,99080.50
2023-01-31T07:42:24.586Z,99087.31
2023-01-31T07:43:28.349Z,99089.94
2023-01-31T07:44:32.176Z,99090.88
2023-01-31T07:45:36.270Z,99089.78
2023-01-31T07:46:41.506Z,99086.84
2023-01-31T07:47:45.153Z,99086.97
2023-01-31T07:48:48.708Z,99085.97
2023-01-31T07:49:52.269Z,99085.47
2023-01-31T07:51:02.473Z,99090.09
2023-01-31T07:52:07.986Z,99086.63
2023-01-31T07:53:13.323Z,99087.50
2023-01-31T07:54:17.159Z,99095.06
2023-01-31T07:55:21.084Z,99091.81
2023-01-31T07:56:25.255Z,99089.28
2023-01-31T07:57:35.204Z,99097.69
2023-01-31T07:58:42.389Z,99095.28
2023-01-31T07:59:46.378Z,99093.16
2023-01-31T08:01:12.764Z,99092.22
2023-01-31T08:02:37.251Z,99098.47
2023-01-31T08:03:41.761Z,99097.69
2023-01-31T08:04:49.117Z,99100.84
2023-01-31T08:05:53.119Z,99100.84
2023-01-31T08:06:57.227Z,99101.47
2023-01-31T08:08:10.428Z,99105.16
2023-01-31T08:09:15.571Z,99105.28
2023-01-31T08:10:19.619Z,99104.59
2023-01-31T08:11:24.179Z,99105.78
2023-01-31T08:12:27.921Z,99104.84
2023-01-31T08:13:36.710Z,99107.41
2023-01-31T08:14:40.940Z,99101.19
2023-01-31T08:15:45.445Z,99109.78
2023-01-31T08:16:53.103Z,99107.34
2023-01-31T08:17:57.177Z,99108.84
2023-01-31T08:19:01.125Z,99109.63
2023-01-31T08:20:05.418Z,99105.16
2023-01-31T08:21:16.010Z,99112.13
2023-01-31T08:22:20.015Z,99112.81
2023-01-31T08:23:24.044Z,99116.19
2023-01-31T08:24:30.416Z,99123.91
2023-01-31T08:25:34.548Z,99111.59
2023-01-31T08:26:38.517Z,99123.53
2023-01-31T08:27:44.110Z,99133.44
2023-01-31T08:28:50.764Z,99134.56
2023-01-31T08:29:55.518Z,99136.00
2023-01-31T08:31:08.917Z,99136.59
2023-01-31T08:32:15.863Z,99132.44
2023-01-31T08:33:20.758Z,99135.00
2023-01-31T08:34:28.182Z,99138.28
2023-01-31T08:35:32.619Z,99140.84
2023-01-31T08:36:37.056Z,99143.34
2023-01-31T08:37:40.895Z,99147.66
2023-01-31T08:38:44.997Z,99143.47
2023-01-31T08:39:49.131Z,99144.84
2023-01-31T08:40:52.730Z,99147.38
2023-01-31T08:41:56.480Z,99150.78
2023-01-31T08:43:01.773Z,99146.38
2023-01-31T08:44:07.101Z,99155.91
2023-01-31T08:45:13.640Z,99156.03
2023-01-31T08:46:17.981Z,99153.63
2023-01-31T08:47:21.941Z,99157.59
2023-01-31T08:48:25.775Z,99155.75
2023-01-31T08:49:32.716Z,99167.31
2023-01-31T08:50:36.342Z,99163.84
2023-01-31T08:51:39.942Z,99161.19
2023-01-31T08:52:44.099Z,99163.13
2023-01-31T08:53:48.299Z,99170.28
2023-01-31T08:54:52.612Z,99165.94
2023-01-31T08:56:07.709Z,99165.69
2023-01-31T08:57:20.947Z,99171.09
2023-01-31T08:58:24.816Z,99164.69
2023-01-31T08:59:30.058Z,99177.13
2023-01-31T09:00:34.276Z,99172.22
2023-01-31T09:01:39.018Z,99174.66
2023-01-31T09:02:43.067Z,99170.25
2023-01-31T09:03:48.585Z,99170.50
2023-01-31T09:04:52.550Z,99174.50
2023-01-31T09:06:02.583Z,99181.59
2023-01-31T09:07:06.305Z,99178.13
2023-01-31T09:08:16.144Z,99183.31
2023-01-31T09:09:20.461Z,99185.72
2023-01-31T09:10:25.270Z,99183.03
2023-01-31T09:11:30.857Z,99182.75
2023-01-31T09:12:35.846Z,99175.06
2023-01-31T09:13:39.783Z,99180.13
2023-01-31T09:14:43.761Z,99183.03
2023-01-31T09:15:48.462Z,99193.59
2023-01-31T09:16:52.589Z,99190.91
2023-01-31T09:17:56.810Z,99183.16
2023-01-31T09:19:00.759Z,99185.72
2023-01-31T09:20:07.145Z,99188.13
2023-01-31T09:21:17.796Z,99194.97
2023-01-31T09:22:22.827Z,99191.03
2023-01-31T09:23:27.673Z,99193.94
2023-01-31T09:24:32.155Z,99194.84
2023-01-31T09:25:46.112Z,99183.31
2023-01-31T09:26:51.051Z,99192.81
2023-01-31T09:27:55.500Z,99175.41
2023-01-31T09:29:01.688Z,99196.22
2023-01-31T09:30:11.420Z,99186.97
2023-01-31T09:31:21.834Z,99175.03
2023-01-31T09:32:26.607Z,99183.75
2023-01-31T09:33:33.419Z,99188.03
2023-01-31T09:34:37.500Z,99192.44
2023-01-31T09:35:42.254Z,99187.19
2023-01-31T09:36:46.088Z,99186.03
2023-01-31T09:37:49.733Z,99189.66
2023-01-31T09:38:57.524Z,99185.28
2023-01-31T09:40:01.251Z,99185.34
2023-01-31T09:41:25.137Z,99180.00
2023-01-31T09:42:40.961Z,99181.59
2023-01-31T09:43:53.205Z,99180.69
2023-01-31T09:45:13.611Z,99189.91
2023-01-31T09:46:23.232Z,99192.19
2023-01-31T09:47:32.226Z,99187.94
2023-01-31T09:48:42.723Z,99187.59
2023-01-31T09:50:03.645Z,99192.00
2023-01-31T09:51:13.752Z,99186.09
2023-01-31T09:52:19.257Z,99186.16
2023-01-31T09:53:31.481Z,99189.44
2023-01-31T09:54:41.715Z,99179.56
2023-01-31T09:56:23.567Z,99188.44
2023-01-31T09:58:08.683Z,99189.22
2023-01-31T09:59:26.698Z,99183.13
2023-01-31T10:00:50.890Z,99192.13
2023-01-31T10:02:29.946Z,99188.72
2023-01-31T10:04:13.255Z,99182.63
2023-01-31T10:06:01.252Z,99183.47
2023-01-31T10:07:23.392Z,99188.91
2023-01-31T10:08:51.553Z,99190.78
2023-01-31T10:10:16.805Z,99195.25
2023-01-31T10:11:46.852Z,99190.25
2023-01-31T10:13:01.297Z,99183.63
2023-01-31T10:14:36.556Z,99179.00
2023-01-31T10:16:12.545Z,99182.56
2023-01-31T10:17:32.735Z,99185.53
2023-01-31T10:18:44.059Z,99180.00
2023-01-31T10:20:19.436Z,99182.78
2023-01-31T10:21:51.187Z,99179.25
2023-01-31T10:23:22.014Z,99184.91
2023-01-31T10:24:49.556Z,99178.38
2023-01-31T10:26:08.841Z,99172.41
2023-01-31T10:27:42.724Z,99179.34
2023-01-31T10:29:11.020Z,99180.88
2023-01-31T10:30:44.943Z,99182.53
2023-01-31T10:32:20.629Z,99175.94
2023-01-31T10:33:41.947Z,99177.44
2023-01-31T10:34:57.513Z,99178.47
2023-01-31T10:36:25.895Z,99183.53
2023-01-31T10:37:50.470Z,99184.59
2023-01-31T10:39:25.933Z,99184.75
2023-01-31T10:40:45.180Z,99191.97
2023-01-31T10:42:09.713Z,99189.25
2023-01-31T10:43:46.545Z,99200.63
2023-01-31T10:45:09.560Z,99199.50
2023-01-31T10:46:18.559Z,99205.75
2023-01-31T10:47:35.754Z,99202.41
2023-01-31T10:48:46.883Z,99197.22
2023-01-31T10:49:51.939Z,99200.69
2023-01-31T10:51:41.311Z,99207.28
2023-01-31T10:53:25.331Z,99200.97
2023-01-31T10:55:04.510Z,99207.28
2023-01-31T10:56:18.687Z,99205.63
2023-01-31T10:57:23.645Z,99196.13
2023-01-31T10:58:27.890Z,99206.28
2023-01-31T10:59:39.103Z,99201.69
2023-01-31T11:00:44.259Z,99198.22
2023-01-31T11:01:48.276Z,99204.47
2023-01-31T11:02:54.810Z,99200.59
2023-01-31T11:04:01.824Z,99195.44
2023-01-31T11:05:21.984Z,99197.19
2023-01-31T11:06:26.022Z,99200.66
2023-01-31T11:07:32.597Z,99192.78
2023-01-31T11:08:59.019Z,99183.38
2023-01-31T11:10:24.602Z,99187.06
2023-01-31T11:11:30.060Z,99186.09
2023-01-31T11:13:02.202Z,99196.44
2023-01-31T11:14:17.756Z,99189.50
2023-01-31T11:15:29.848Z,99199.75
2023-01-31T11:16:41.180Z,99195.13
2023-01-31T11:17:50.405Z,99197.75
2023-01-31T11:18:54.627Z,99189.59
2023-01-31T11:19:59.359Z,99195.38
2023-01-31T11:21:05.829Z,99198.72
2023-01-31T11:22:29.315Z,99186.59
2023-01-31T11:23:37.816Z,99191.63
2023-01-31T11:24:47.938Z,99188.53
2023-01-31T11:25:56.188Z,99182.34
2023-01-31T11:27:20.899Z,99188.75
2023-01-31T11:28:40.764Z,99187.03
2023-01-31T11:29:51.533Z,99187.56
2023-01-31T11:30:56.613Z,99183.19
2023-01-31T11:32:04.219Z,99188.69
2023-01-31T11:33:28.396Z,99181.50
2023-01-31T11:34:33.955Z,99186.47
2023-01-31T11:35:37.812Z,99185.34
2023-01-31T11:36:45.959Z,99186.00
2023-01-31T11:38:02.417Z,99188.03
2023-01-31T11:39:33.103Z,99184.06
2023-01-31T11:40:40.890Z,99179.78
2023-01-31T11:41:45.055Z,99186.47
2023-01-31T11:43:04.968Z,99189.34
2023-01-31T11:44:18.577Z,99181.22
2023-01-31T11:45:27.998Z,99190.31
2023-01-31T11:47:04.773Z,99190.38
2023-01-31T11:48:22.207Z,99191.38
2023-01-31T11:49:43.288Z,99183.50
2023-01-31T11:50:51.395Z,99179.38
2023-01-31T11:51:57.184Z,99187.69
2023-01-31T11:53:14.185Z,99178.78
2023-01-31T11:54:28.325Z,99184.81
2023-01-31T11:55:39.767Z,99183.84
2023-01-31T11:56:46.401Z,99171.19
2023-01-31T11:58:03.261Z,99177.16
2023-01-31T11:59:29.042Z,99181.63
2023-01-31T12:00:34.975Z,99183.41
2023-01-31T12:01:53.557Z,99180.88
2023-01-31T12:03:09.232Z,99183.78
2023-01-31T12:04:35.167Z,99181.13
2023-01-31T12:05:45.003Z,99185.63
2023-01-31T12:07:30.803Z,99188.44
2023-01-31T12:08:46.594Z,99177.56
2023-01-31T12:09:51.204Z,99188.22
2023-01-31T12:10:55.755Z,99189.25
2023-01-31T12:12:07.937Z,99178.56
2023-01-31T12:13:26.094Z,99176.59
2023-01-31T12:14:41.504Z,99174.06
2023-01-31T12:16:05.565Z,99174.00
2023-01-31T12:17:20.714Z,99175.00
2023-01-31T12:19:07.378Z,99179.47
2023-01-31T12:20:55.975Z,99175.16
2023-01-31T12:22:34.179Z,99178.97
2023-01-31T12:23:52.149Z,99179.09
2023-01-31T12:25:20.847Z,99166.81
2023-01-31T12:26:51.211Z,99167.38
2023-01-31T12:28:17.871Z,99166.53
2023-01-31T12:30:09.623Z,99161.28
2023-01-31T12:31:34.747Z,99173.72
2023-01-31T12:33:21.961Z,99164.31
2023-01-31T12:35:22.525Z,99162.41
2023-01-31T12:36:50.291Z,99162.81
2023-01-31T12:38:35.859Z,99150.59
2023-01-31T12:39:52.093Z,99147.72
2023-01-31T12:41:24.309Z,99149.13
2023-01-31T12:43:01.794Z,99145.16
2023-01-31T12:44:48.476Z,99148.72
2023-01-31T12:46:28.652Z,99157.25
2023-01-31T12:48:00.218Z,99156.25
2023-01-31T12:49:33.684Z,99147.41
2023-01-31T12:51:00.137Z,99152.50
2023-01-31T12:53:03.273Z,99155.81
2023-01-31T12:54:41.039Z,99149.03
2023-01-31T12:56:26.728Z,99143.69
2023-01-31T12:57:51.014Z,99135.72
2023-01-31T12:59:18.157Z,99148.88
2023-01-31T13:01:07.330Z,99149.72
2023-01-31T13:03:01.114Z,99143.34
2023-01-31T13:04:26.641Z,99143.56
2023-01-31T13:06:03.302Z,99135.69
2023-01-31T13:07:24.460Z,99133.59
2023-01-31T13:08:34.513Z,99132.63
2023-01-31T13:09:39.220Z,99133.31
2023-01-31T13:11:03.806Z,99129.72
2023-01-31T13:12:23.397Z,99132.34
2023-01-31T13:13:56.198Z,99134.72
2023-01-31T13:15:41.828Z,99128.97
2023-01-31T13:16:51.463Z,99136.88
2023-01-31T13:18:04.384Z,99129.47
2023-01-31T13:19:20.663Z,99130.31
2023-01-31T13:20:44.604Z,99123.00
2023-01-31T13:21:58.153Z,99126.28
2023-01-31T13:23:18.797Z,99125.19
2023-01-31T13:24:45.416Z,99125.75
2023-01-31T13:25:59.740Z,99133.50
2023-01-31T13:27:19.153Z,99130.03
2023-01-31T13:28:30.348Z,99130.78
2023-01-31T13:30:04.398Z,99127.22
2023-01-31T13:31:23.781Z,99140.31
2023-01-31T13:32:45.429Z,99126.38
2023-01-31T13:34:16.870Z,99132.56
2023-01-31T13:35:41.180Z,99133.72
2023-01-31T13:37:06.969Z,99131.44
2023-01-31T13:38:20.795Z,99133.88
2023-01-31T13:39:36.040Z,99130.53
2023-01-31T13:40:52.325Z,99126.59
2023-01-31T13:41:56.568Z,99133.63
2023-01-31T13:43:15.493Z,99131.00
2023-01-31T13:44:21.239Z,99124.28
2023-01-31T13:45:36.430Z,99121.78
2023-01-31T13:46:55.563Z,99124.66
2023-01-31T13:48:34.901Z,99124.22
2023-01-31T13:50:18.485Z,99123.81
2023-01-31T13:51:48.843Z,99130.75
2023-01-31T13:52:57.429Z,99129.06
2023-01-31T13:54:22.431Z,99129.25
2023-01-31T13:55:39.995Z,99126.78
2023-01-31T13:56:54.296Z,99126.13
2023-01-31T13:58:06.568Z,99120.81
2023-01-31T13:59:14.310Z,99129.63
2023-01-31T14:00:46.434Z,99130.91
2023-01-31T14:01:56.757Z,99123.94
2023-01-31T14:03:22.104Z,99126.38
2023-01-31T14:04:33.469Z,99121.97
2023-01-31T14:05:55.325Z,99136.81
2023-01-31T14:07:06.891Z,99134.03
2023-01-31T14:08:42.435Z,99124.63
2023-01-31T14:09:52.941Z,99121.88
2023-01-31T14:11:31.217Z,99122.75
2023-01-31T14:12:38.067Z,99122.16
2023-01-31T14:13:54.309Z,99120.59
2023-01-31T14:14:58.283Z,99117.69
2023-01-31T14:16:04.258Z,99127.91
2023-01-31T14:17:17.058Z,99127.78
2023-01-31T14:18:46.185Z,99123.50
2023-01-31T14:19:50.334Z,99126.22
2023-01-31T14:20:54.293Z,99125.56
2023-01-31T14:22:35.100Z,99121.44
2023-01-31T14:23:47.569Z,99119.81
2023-01-31T14:25:04.745Z,99117.09
2023-01-31T14:26:43.818Z,99117.25
2023-01-31T14:27:56.660Z,99116.69
2023-01-31T14:29:15.227Z,99114.31
2023-01-31T14:30:29.866Z,99118.72
2023-01-31T14:31:34.764Z,99117.88
2023-01-31T14:33:01.609Z,99116.53
2023-01-31T14:34:07.326Z,99118.38
2023-01-31T14:35:13.969Z,99116.69
2023-01-31T14:37:14.153Z,99113.78
2023-01-31T14:39:03.253Z,99112.69
2023-01-31T14:40:28.090Z,99113.69
2023-01-31T14:42:30.451Z,99107.31
2023-01-31T14:43:58.600Z,99110.16
2023-01-31T14:45:23.642Z,99111.72
2023-01-31T14:46:58.803Z,99103.75
2023-01-31T14:48:39.179Z,99103.28
2023-01-31T14:50:53.016Z,99098.50
2023-01-31T14:52:17.847Z,99096.66
2023-01-31T14:54:17.729Z,99100.56
2023-01-31T14:55:59.753Z,99103.34
2023-01-31T14:57:33.047Z,99096.25
2023-01-31T14:58:48.330Z,99108.28
2023-01-31T15:00:00.456Z,99097.25
2023-01-31T15:01:08.690Z,99102.06
2023-01-31T15:02:33.832Z,99098.59
2023-01-31T15:03:48.780Z,99100.63
2023-01-31T15:05:07.702Z,99095.16
2023-01-31T15:06:31.958Z,99093.53
2023-01-31T15:07:36.518Z,99093.81
2023-01-31T15:08:47.986Z,99098.94
2023-01-31T15:09:55.444Z,99093.44
2023-01-31T15:11:44.676Z,99100.84
2023-01-31T15:13:01.118Z,99098.94
2023-01-31T15:14:35.532Z,99090.59
2023-01-31T15:15:40.833Z,99081.88
2023-01-31T15:16:45.268Z,99085.22
2023-01-31T15:17:54.624Z,99084.38
2023-01-31T15:19:21.519Z,99080.41
2023-01-31T15:20:45.791Z,99085.78
2023-01-31T15:22:03.643Z,99080.53
2023-01-31T15:23:20.993Z,99090.09
2023-01-31T15:24:46.333Z,99081.03
2023-01-31T15:25:52.470Z,99083.84
2023-01-31T15:27:02.803Z,99080.16
2023-01-31T15:28:18.556Z,99082.56
2023-01-31T15:29:34.500Z,99088.94
2023-01-31T15:30:43.586Z,99087.41
2023-01-31T15:31:54.941Z,99085.75
2023-01-31T15:33:29.321Z,99076.31
2023-01-31T15:34:46.408Z,99079.88
2023-01-31T15:36:02.613Z,99086.16
2023-01-31T15:37:31.648Z,99082.69
2023-01-31T15:38:57.868Z,99084.59
2023-01-31T15:40:16.250Z,99079.34
2023-01-31T15:41:26.033Z,99088.78
2023-01-31T15:42:33.316Z,99088.94
2023-01-31T15:43:39.668Z,99081.31
2023-01-31T15:44:43.987Z,99086.75
2023-01-31T15:45:51.765Z,99084.94
2023-01-31T15:46:58.313Z,99085.91
2023-01-31T15:48:13.282Z,99087.56
2023-01-31T15:49:39.520Z,99073.91
2023-01-31T15:50:57.366Z,99081.72
2023-01-31T15:52:08.470Z,99080.81
2023-01-31T15:53:18.342Z,99080.81
2023-01-31T15:54:22.395Z,99075.56
2023-01-31T15:55:26.406Z,99074.97
2023-01-31T15:56:34.237Z,99069.72
2023-01-31T15:57:56.963Z,99069.78
2023-01-31T15:59:05.595Z,99061.66
2023-01-31T16:00:26.806Z,99072.28
2023-01-31T16:01:31.127Z,99061.59
2023-01-31T16:02:35.495Z,99062.53
2023-01-31T16:03:43.731Z,99058.97
2023-01-31T16:04:48.039Z,99053.13
2023-01-31T16:05:56.037Z,99056.66
2023-01-31T16:07:00.039Z,99052.34
2023-01-31T16:08:36.407Z,99057.72
2023-01-31T16:09:44.280Z,99051.19
2023-01-31T16:10:50.792Z,99047.03
2023-01-31T16:11:56.363Z,99049.56
2023-01-31T16:13:02.300Z,99049.38
2023-01-31T16:14:10.513Z,99045.31
2023-01-31T16:15:27.538Z,99049.56
2023-01-31T16:16:35.595Z,99041.69
2023-01-31T16:17:40.769Z,99046.78
2023-01-31T16:18:52.997Z,99041.03
2023-01-31T16:19:57.433Z,99040.09